Time;durP1;ratioP1;P1;durP2;ratioP2;P2;SDS_P1;SDS_P2;PMS_P1;PMS_P2;Temp;Humidity;BMP_temperature;BMP_pressure;BME280_temperature;BME280_humidity;BME280_pressure;Samples;Min_cycle;Max_cycle;Signal;HPM_P1;HPM_P2
2022/04/22 00:00:15;;;;;;;61.70;56.50;;;;;;;7.05;75.08;97358.46;106328;1274;22546;-78
2022/04/22 00:03:02;;;;;;;76.40;70.00;;;;;;;6.99;75.00;97354.48;106238;1274;25291;-80
2022/04/22 00:05:30;;;;;;;63.10;57.20;;;;;;;6.94;75.10;97345.65;106280;1274;25247;-80
2022/04/22 00:07:58;;;;;;;62.30;56.80;;;;;;;6.93;75.21;97343.09;106273;1274;22563;-79
2022/04/22 00:10:26;;;;;;;57.50;52.40;;;;;;;6.96;75.41;97336.73;106339;1274;22563;-79
2022/04/22 00:12:54;;;;;;;60.20;54.70;;;;;;;7.00;75.56;97336.78;106222;1274;22548;-79
2022/04/22 00:15:22;;;;;;;55.40;50.90;;;;;;;7.05;75.64;97338.80;106251;1274;22618;-79
2022/04/22 00:17:50;;;;;;;59.10;54.20;;;;;;;7.10;75.68;97341.67;106273;1274;24221;-78
2022/04/22 00:20:18;;;;;;;59.20;54.20;;;;;;;7.13;75.73;97340.77;106267;1275;22712;-78
2022/04/22 00:22:46;;;;;;;55.80;50.90;;;;;;;7.16;75.92;97338.91;106093;1274;22594;-77
2022/04/22 00:25:14;;;;;;;53.80;49.30;;;;;;;7.18;75.79;97335.98;106059;1275;22640;-78
2022/04/22 00:27:42;;;;;;;57.10;52.20;;;;;;;7.23;75.67;97336.26;106293;1274;22589;-77
2022/04/22 00:30:12;;;;;;;60.80;55.70;;;;;;;7.27;75.87;97335.38;106273;1274;23182;-77
2022/04/22 00:32:40;;;;;;;57.90;53.00;;;;;;;7.28;75.55;97335.30;106098;1274;23266;-79
2022/04/22 00:35:08;;;;;;;57.80;53.10;;;;;;;7.27;75.35;97338.13;106093;1274;22682;-80
2022/04/22 00:37:36;;;;;;;59.40;54.40;;;;;;;7.25;75.63;97332.79;106093;1277;22585;-79
2022/04/22 00:40:04;;;;;;;54.60;50.00;;;;;;;7.20;75.20;97332.01;106141;1274;22646;-80
2022/04/22 00:42:32;;;;;;;54.90;50.20;;;;;;;7.16;75.12;97325.73;105950;1274;25412;-81
2022/04/22 00:45:00;;;;;;;50.90;46.60;;;;;;;7.15;75.31;97320.39;105989;1273;22639;-80
2022/04/22 00:47:28;;;;;;;53.90;49.10;;;;;;;7.12;75.14;97316.79;106004;1275;25369;-80
2022/04/22 00:49:56;;;;;;;55.80;51.00;;;;;;;7.10;75.26;97315.55;106005;1274;22875;-80
2022/04/22 00:52:24;;;;;;;55.90;51.10;;;;;;;7.03;75.13;97316.02;106277;1274;22624;-78
2022/04/22 00:54:52;;;;;;;62.20;56.90;;;;;;;6.93;75.30;97308.80;106253;1274;26631;-80
2022/04/22 00:57:20;;;;;;;58.00;52.90;;;;;;;6.88;75.55;97309.64;106280;1274;22561;-79
2022/04/22 00:59:48;;;;;;;52.00;47.50;;;;;;;6.86;75.56;97309.45;106226;1274;22627;-80
2022/04/22 01:02:16;;;;;;;59.80;54.70;;;;;;;6.88;75.79;97312.58;106218;1274;22546;-80
2022/04/22 01:10:17;;;;;;;61.00;55.70;;;;;;;7.06;76.08;97320.37;106272;1274;22554;-80
2022/04/22 01:12:45;;;;;;;60.20;55.10;;;;;;;7.05;76.02;97321.13;106268;1274;22550;-81
2022/04/22 01:15:12;;;;;;;60.40;55.10;;;;;;;7.04;75.91;97320.05;106296;1275;22566;-80
2022/04/22 01:17:40;;;;;;;58.80;53.90;;;;;;;7.07;76.07;97321.14;106059;1277;22547;-79
2022/04/22 01:20:08;;;;;;;53.10;48.30;;;;;;;7.11;75.97;97322.16;106268;1274;25483;-79
2022/04/22 01:22:36;;;;;;;55.00;49.70;;;;;;;7.09;75.65;97320.96;106219;1274;23335;-79
2022/04/22 01:25:04;;;;;;;53.00;48.30;;;;;;;7.03;75.66;97316.86;106239;1274;22687;-78
2022/04/22 01:27:32;;;;;;;52.80;48.20;;;;;;;6.99;75.75;97310.39;106275;1274;22707;-78
2022/04/22 01:30:02;;;;;;;52.50;47.90;;;;;;;6.95;75.94;97307.98;106299;1274;22652;-79
2022/04/22 01:32:30;;;;;;;54.70;50.00;;;;;;;6.96;76.01;97307.38;106292;1275;23352;-79
2022/04/22 01:34:59;;;;;;;55.60;50.40;;;;;;;6.99;76.02;97306.26;106250;1274;26626;-79
2022/04/22 01:37:27;;;;;;;55.40;50.30;;;;;;;7.03;76.28;97301.01;106248;1274;22919;-82
2022/04/22 01:39:54;;;;;;;55.70;50.50;;;;;;;7.05;76.25;97296.69;106383;1274;25402;-80
2022/04/22 01:42:22;;;;;;;58.20;52.80;;;;;;;7.05;76.36;97296.90;106323;1274;22705;-81
2022/04/22 01:44:50;;;;;;;57.50;52.20;;;;;;;7.05;76.46;97292.73;107388;1274;22550;-80
2022/04/22 01:47:19;;;;;;;56.00;50.50;;;;;;;7.06;76.48;97288.23;107403;1273;24276;-79
2022/04/22 01:49:47;;;;;;;52.70;47.80;;;;;;;7.09;76.44;97293.85;106357;1274;25426;-80
2022/04/22 01:52:15;;;;;;;55.00;49.70;;;;;;;7.13;76.46;97294.70;106623;1274;24232;-79
2022/04/22 01:54:43;;;;;;;59.40;54.00;;;;;;;7.18;76.23;97295.48;106264;1274;22553;-80
2022/04/22 01:57:11;;;;;;;58.30;53.40;;;;;;;7.17;76.07;97296.63;106289;1274;22612;-79
2022/04/22 01:59:40;;;;;;;56.30;51.50;;;;;;;7.11;76.03;97297.23;106253;1273;22632;-80
2022/04/22 02:02:08;;;;;;;54.80;49.90;;;;;;;7.07;76.06;97300.75;106267;1274;22628;-81
2022/04/22 02:04:36;;;;;;;50.60;46.20;;;;;;;7.04;76.22;97300.52;106248;1274;24244;-78
2022/04/22 02:07:05;;;;;;;50.70;45.90;;;;;;;7.05;76.11;97299.42;106279;1274;22607;-79
2022/04/22 02:09:33;;;;;;;52.30;47.70;;;;;;;7.07;76.31;97296.77;106248;1274;25475;-80
2022/04/22 02:12:02;;;;;;;55.50;50.50;;;;;;;7.08;76.20;97298.80;106113;1275;24259;-78
2022/04/22 02:14:30;;;;;;;56.20;51.50;;;;;;;7.03;76.11;97295.71;106285;1274;24700;-78
2022/04/22 02:16:58;;;;;;;53.00;48.20;;;;;;;6.97;76.19;97288.55;106289;1274;25397;-79
2022/04/22 02:19:31;;;;;;;49.80;45.50;;;;;;;6.92;76.44;97283.21;106101;1275;22830;-79
2022/04/22 02:21:58;;;;;;;46.80;42.60;;;;;;;6.91;76.26;97277.88;106270;1273;23009;-77
2022/04/22 02:24:26;;;;;;;55.10;50.10;;;;;;;6.90;76.25;97272.55;105978;1274;22554;-79
2022/04/22 02:29:41;;;;;;;57.90;53.20;;;;;;;6.87;76.61;97273.48;106295;1274;22566;-78
2022/04/22 02:32:08;;;;;;;66.40;60.70;;;;;;;6.85;76.77;97267.62;106289;1275;22718;-79
2022/04/22 02:34:36;;;;;;;62.40;57.40;;;;;;;6.85;76.84;97268.48;106248;1274;25480;-78
2022/04/22 02:37:05;;;;;;;60.50;55.40;;;;;;;6.83;76.95;97268.94;106266;1274;22558;-78
2022/04/22 02:39:33;;;;;;;54.40;49.50;;;;;;;6.82;76.94;97263.28;106258;1274;22755;-76
2022/04/22 02:47:34;;;;;;;45.90;41.80;;;;;;;6.90;76.86;97257.86;106271;1274;25675;-78
2022/04/22 02:50:02;;;;;;;46.10;42.20;;;;;;;6.88;76.87;97257.61;106256;1274;22705;-79
2022/04/22 02:52:30;;;;;;;47.00;43.10;;;;;;;6.87;77.01;97258.45;106248;1275;25453;-79
2022/04/22 02:54:57;;;;;;;47.50;43.50;;;;;;;6.88;77.17;97259.19;106530;1274;22556;-79
2022/04/22 02:57:26;;;;;;;46.20;42.00;;;;;;;6.93;77.28;97260.18;106434;1274;25225;-79
2022/04/22 02:59:53;;;;;;;47.50;43.20;;;;;;;6.99;77.12;97261.21;106452;1274;22718;-79
2022/04/22 03:02:21;;;;;;;47.80;43.80;;;;;;;7.04;76.99;97260.75;106306;1274;22547;-80
2022/04/22 03:04:49;;;;;;;57.70;52.90;;;;;;;7.09;76.94;97253.58;106205;1274;23013;-78
2022/04/22 03:07:17;;;;;;;51.20;47.10;;;;;;;7.11;77.06;97254.64;106217;1274;24367;-79
2022/04/22 03:09:48;;;;;;;55.70;51.10;;;;;;;7.13;77.10;97255.09;106148;1275;25430;-79
2022/04/22 03:12:16;;;;;;;63.50;58.30;;;;;;;7.17;77.32;97251.77;106253;1274;25283;-78
2022/04/22 03:14:44;;;;;;;51.70;47.20;;;;;;;7.19;77.07;97249.98;106270;1274;22704;-79
2022/04/22 03:17:12;;;;;;;51.80;47.40;;;;;;;7.19;76.71;97245.78;106283;1274;22615;-79
2022/04/22 03:19:40;;;;;;;53.40;48.90;;;;;;;7.17;76.91;97242.23;106226;1274;24314;-79
2022/04/22 03:22:08;;;;;;;56.30;51.50;;;;;;;7.13;76.87;97243.30;106282;1274;22566;-78
2022/04/22 03:24:36;;;;;;;64.10;58.60;;;;;;;7.07;76.70;97240.14;106306;1274;25343;-78
2022/04/22 03:27:06;;;;;;;71.70;65.40;;;;;;;7.02;76.93;97244.83;106366;1274;22543;-79
2022/04/22 03:29:35;;;;;;;70.90;64.80;;;;;;;6.99;77.00;97241.87;106314;1274;22713;-80
2022/04/22 03:32:03;;;;;;;59.30;54.20;;;;;;;6.97;77.09;97235.95;106228;1275;24219;-79
2022/04/22 03:34:32;;;;;;;54.10;49.60;;;;;;;6.97;77.00;97229.36;106309;1274;22763;-78
2022/04/22 03:37:01;;;;;;;62.40;57.20;;;;;;;6.95;77.22;97224.83;106313;1274;24353;-80
2022/04/22 03:39:29;;;;;;;56.60;51.80;;;;;;;6.93;77.35;97228.98;106278;1274;22553;-79
2022/04/22 03:41:58;;;;;;;55.80;51.10;;;;;;;6.91;77.35;97231.55;106222;1274;22576;-79
2022/04/22 03:44:26;;;;;;;56.10;51.50;;;;;;;6.90;77.44;97230.70;106271;1274;22726;-79
2022/04/22 03:46:54;;;;;;;53.40;48.70;;;;;;;6.90;77.40;97225.18;106250;1274;25299;-79
2022/04/22 03:49:22;;;;;;;45.50;41.50;;;;;;;6.92;77.45;97224.09;106275;1274;24209;-78
2022/04/22 03:51:50;;;;;;;79.30;72.50;;;;;;;6.96;77.44;97220.37;106257;1274;24088;-79
2022/04/22 03:54:22;;;;;;;52.30;47.80;;;;;;;7.00;77.75;97221.98;106246;1274;22701;-79
2022/04/22 03:59:36;;;;;;;47.70;43.80;;;;;;;7.01;77.66;97218.70;106224;1274;22548;-79
2022/04/22 04:02:04;;;;;;;51.20;46.70;;;;;;;7.00;77.62;97216.35;106251;1274;22534;-80
2022/04/22 04:04:32;;;;;;;46.60;42.60;;;;;;;7.02;77.59;97216.16;106289;1274;22667;-79
2022/04/22 04:07:01;;;;;;;45.50;41.40;;;;;;;7.05;77.72;97214.50;106302;1274;25293;-78
2022/04/22 04:16:03;;;;;;;50.00;45.80;;;;;;;7.26;78.16;97215.89;106286;1274;24442;-79
2022/04/22 04:17:59;;;;;;;52.20;47.70;;;;;;;7.32;78.14;97220.23;106145;1274;25522;-78
2022/04/22 04:23:16;;;;;;;52.40;47.30;;;;;;;7.42;78.15;97225.97;106294;1274;22862;-79
2022/04/22 04:25:46;;;;;;;51.10;45.90;;;;;;;7.46;78.08;97223.75;106253;1274;22641;-79
2022/04/22 04:28:15;;;;;;;44.80;40.70;;;;;;;7.54;78.18;97224.90;106131;1275;23940;-79
2022/04/22 04:30:44;;;;;;;41.10;37.20;;;;;;;7.59;78.31;97229.20;106088;1274;22580;-80
2022/04/22 04:33:12;;;;;;;52.90;48.30;;;;;;;7.63;78.09;97231.39;106314;1274;22628;-80
2022/04/22 04:35:44;;;;;;;60.40;54.70;;;;;;;7.62;78.00;97232.16;106280;1274;25459;-79
2022/04/22 04:38:13;;;;;;;69.40;63.10;;;;;;;7.56;77.58;97239.81;106017;1274;22639;-78
2022/04/22 04:40:41;;;;;;;64.90;59.10;;;;;;;7.47;77.62;97245.81;106142;1274;22546;-79
2022/04/22 04:43:08;;;;;;;60.50;55.40;;;;;;;7.42;77.77;97246.65;106268;1274;22752;-79
2022/04/22 04:45:36;;;;;;;62.00;56.50;;;;;;;7.41;77.84;97242.76;106299;1274;22616;-79
2022/04/22 04:48:05;;;;;;;65.30;59.50;;;;;;;7.43;77.91;97240.30;106242;1274;23009;-79
2022/04/22 04:50:33;;;;;;;68.90;63.10;;;;;;;7.45;77.93;97241.09;106247;1274;23566;-80
2022/04/22 04:53:00;;;;;;;69.60;63.40;;;;;;;7.48;78.02;97248.26;106259;1274;22551;-78
2022/04/22 04:55:28;;;;;;;63.50;57.90;;;;;;;7.49;77.87;97250.50;106232;1273;23948;-79
2022/04/22 04:57:56;;;;;;;67.00;60.80;;;;;;;7.47;77.98;97254.98;106225;1274;23949;-80
2022/04/22 05:00:24;;;;;;;67.50;60.90;;;;;;;7.46;77.81;97257.23;106126;1274;22615;-79
2022/04/22 05:02:54;;;;;;;63.10;56.90;;;;;;;7.49;77.95;97260.04;106242;1274;22604;-79
2022/04/22 05:05:30;;;;;;;55.00;50.30;;;;;;;7.53;78.00;97261.39;106262;1274;22557;-80
2022/04/22 05:08:00;;;;;;;60.90;55.70;;;;;;;7.54;77.80;97263.92;106307;1274;22594;-79
2022/04/22 05:10:30;;;;;;;58.50;53.40;;;;;;;7.51;77.59;97266.70;106328;1274;22551;-79
2022/04/22 05:13:03;;;;;;;58.20;50.90;;;;;;;7.48;77.74;97261.55;106259;1274;22987;-79
2022/04/22 05:15:32;;;;;;;55.40;50.50;;;;;;;7.46;77.62;97261.76;106340;1274;22595;-80
2022/04/22 05:18:02;;;;;;;54.00;49.10;;;;;;;7.44;77.62;97260.65;106316;1274;25703;-79
2022/04/22 05:20:32;;;;;;;52.40;48.10;;;;;;;7.44;77.70;97266.94;106355;1274;26553;-80
2022/04/22 05:23:01;;;;;;;58.80;53.70;;;;;;;7.47;77.91;97265.92;106342;1274;25263;-80
2022/04/22 05:25:29;;;;;;;60.90;55.90;;;;;;;7.49;77.93;97263.36;106267;1274;25417;-80
2022/04/22 05:27:57;;;;;;;58.40;53.40;;;;;;;7.53;77.91;97260.30;106228;1274;22629;-80
2022/04/22 05:33:11;;;;;;;58.50;53.60;;;;;;;7.57;78.04;97254.02;106030;1274;22572;-80
2022/04/22 05:35:39;;;;;;;73.70;67.00;;;;;;;7.64;78.46;97255.17;106365;1274;24352;-79
2022/04/22 05:38:07;;;;;;;58.50;53.10;;;;;;;7.74;78.46;97257.09;106393;1274;23010;-79
2022/04/22 05:40:37;;;;;;;57.80;52.70;;;;;;;7.86;78.45;97256.00;106291;1274;22612;-79
2022/04/22 05:43:06;;;;;;;55.60;50.50;;;;;;;7.97;78.69;97254.52;106244;1274;26557;-79
2022/04/22 05:45:38;;;;;;;55.10;50.30;;;;;;;8.02;78.27;97252.83;106190;1274;25376;-78
2022/04/22 05:48:07;;;;;;;69.70;63.40;;;;;;;8.05;78.54;97251.27;106257;1271;25255;-78
2022/04/22 05:50:36;;;;;;;64.90;58.40;;;;;;;8.11;78.60;97245.45;106068;1274;22625;-79
2022/04/22 05:53:04;;;;;;;48.30;43.80;;;;;;;8.15;78.08;97242.55;106376;1274;25258;-79
2022/04/22 05:55:32;;;;;;;47.70;43.50;;;;;;;8.20;78.15;97247.39;106317;1272;22615;-79
2022/04/22 05:58:02;;;;;;;45.90;42.10;;;;;;;8.27;78.40;97241.71;106234;1274;23392;-79
2022/04/22 06:00:31;;;;;;;47.50;43.30;;;;;;;8.36;78.47;97236.38;106282;1274;24587;-80
2022/04/22 06:03:01;;;;;;;45.40;41.60;;;;;;;8.45;78.39;97229.08;106326;1274;25237;-80
2022/04/22 06:05:31;;;;;;;40.30;36.80;;;;;;;8.48;78.07;97224.59;106322;1274;24362;-78
2022/04/22 06:10:53;;;;;;;37.60;33.80;;;;;;;8.64;78.28;97224.27;106337;1274;22540;-78
2022/04/22 06:13:22;;;;;;;39.10;35.60;;;;;;;8.74;78.13;97220.97;106335;1274;22713;-79
2022/04/22 06:15:51;;;;;;;38.00;34.70;;;;;;;8.83;78.26;97219.05;106419;1274;24431;-79
2022/04/22 06:18:19;;;;;;;37.60;34.30;;;;;;;8.91;78.19;97220.23;109444;1274;22584;-78
2022/04/22 06:20:48;;;;;;;39.10;35.80;;;;;;;8.96;78.44;97215.91;109437;1274;24325;-76
2022/04/22 06:23:16;;;;;;;34.40;31.30;;;;;;;9.05;78.44;97214.08;106782;1274;22543;-79
2022/04/22 06:25:46;;;;;;;32.30;29.40;;;;;;;9.17;78.03;97211.66;106317;1274;25252;-79
2022/04/22 06:28:14;;;;;;;36.10;32.70;;;;;;;9.30;78.20;97211.37;106363;1274;22573;-79
2022/04/22 06:30:42;;;;;;;35.80;32.60;;;;;;;9.40;77.86;97215.32;106350;1274;22633;-79
2022/04/22 06:33:11;;;;;;;32.70;30.00;;;;;;;9.47;77.89;97217.25;106341;1274;24451;-79
2022/04/22 06:35:40;;;;;;;36.50;33.50;;;;;;;9.56;77.86;97216.80;106280;1274;23940;-80
2022/04/22 06:38:08;;;;;;;32.10;29.30;;;;;;;9.65;77.99;97216.31;106212;1274;22601;-79
2022/04/22 06:46:12;;;;;;;30.70;27.80;;;;;;;9.86;77.89;97216.02;106294;1274;22703;-79
2022/04/22 06:48:40;;;;;;;32.00;29.00;;;;;;;9.96;77.94;97214.45;106647;1274;24400;-81
2022/04/22 06:51:13;;;;;;;31.90;29.10;;;;;;;10.01;77.39;97216.59;106005;1274;22685;-80
2022/04/22 06:53:41;;;;;;;31.50;28.70;;;;;;;9.99;77.55;97217.59;106063;1274;25414;-80
2022/04/22 06:56:10;;;;;;;34.20;31.30;;;;;;;10.01;77.35;97214.91;106012;1274;24378;-80
2022/04/22 06:58:38;;;;;;;31.90;29.10;;;;;;;10.03;76.87;97216.86;106324;1274;24724;-79
2022/04/22 07:01:08;;;;;;;31.10;28.40;;;;;;;10.08;77.16;97221.90;106286;1274;22748;-80
2022/04/22 07:03:57;;;;;;;33.10;29.90;;;;;;;10.14;77.19;97226.77;106219;1274;23987;-80
2022/04/22 07:06:25;;;;;;;33.00;30.20;;;;;;;10.20;76.96;97225.68;106289;1274;22694;-80
2022/04/22 07:08:54;;;;;;;35.40;32.20;;;;;;;10.27;76.89;97228.86;106406;1274;22806;-81
2022/04/22 07:11:25;;;;;;;33.60;30.70;;;;;;;10.30;76.63;97236.00;106493;1273;22694;-81
2022/04/22 07:13:55;;;;;;;35.30;32.30;;;;;;;10.28;76.43;97232.61;106614;1274;22495;-81
2022/04/22 07:16:23;;;;;;;35.50;32.20;;;;;;;10.29;76.59;97232.85;106459;1274;25705;-80
2022/04/22 07:18:55;;;;;;;35.60;32.30;;;;;;;10.32;76.45;97232.77;106394;1274;22615;-80
2022/04/22 07:21:24;;;;;;;36.20;32.70;;;;;;;10.36;76.47;97232.15;106453;1274;22547;-80
2022/04/22 07:23:55;;;;;;;37.10;33.60;;;;;;;10.43;76.32;97231.25;106470;1274;22544;-80
2022/04/22 07:26:24;;;;;;;34.70;31.30;;;;;;;10.45;76.27;97232.71;106583;1274;22614;-80
2022/04/22 07:28:57;;;;;;;37.90;34.20;;;;;;;10.44;76.08;97234.61;106555;1274;24403;-80
2022/04/22 07:31:31;;;;;;;38.00;34.40;;;;;;;10.44;76.08;97236.08;106524;1274;22544;-81
2022/04/22 07:34:00;;;;;;;42.60;38.40;;;;;;;10.50;76.11;97237.45;106432;1274;24221;-80
2022/04/22 07:36:29;;;;;;;41.70;37.60;;;;;;;10.50;75.88;97240.33;106502;1274;22769;-80
2022/04/22 07:38:57;;;;;;;38.80;34.90;;;;;;;10.55;75.96;97238.19;106458;1274;25740;-81
2022/04/22 07:41:28;;;;;;;39.70;36.10;;;;;;;10.62;75.76;97236.09;106485;1274;22564;-81
2022/04/22 07:46:47;;;;;;;38.50;34.70;;;;;;;10.75;75.61;97235.38;106477;1274;26251;-81
2022/04/22 07:49:17;;;;;;;39.60;36.00;;;;;;;10.77;75.35;97230.41;106573;1273;22544;-80
2022/04/22 07:51:45;;;;;;;40.10;36.00;;;;;;;10.82;75.50;97228.55;106575;1274;22555;-80
2022/04/22 07:54:12;;;;;;;40.40;36.60;;;;;;;10.85;75.30;97228.13;106447;1273;25414;-79
2022/04/22 07:56:43;;;;;;;33.40;30.50;;;;;;;10.93;75.45;97235.33;106458;1274;25334;-78
2022/04/22 07:59:11;;;;;;;30.50;27.60;;;;;;;11.01;74.93;97236.63;106417;1274;22570;-78
2022/04/22 08:01:39;;;;;;;34.90;31.80;;;;;;;11.08;74.77;97241.48;106487;1274;22543;-79
2022/04/22 08:04:09;;;;;;;34.60;31.50;;;;;;;11.12;74.72;97243.07;106520;1274;22616;-78
2022/04/22 08:06:38;;;;;;;37.20;33.40;;;;;;;11.11;74.24;97244.41;106341;1274;22683;-79
2022/04/22 08:09:06;;;;;;;34.50;31.40;;;;;;;11.09;74.38;97235.81;106559;1274;22700;-78
2022/04/22 08:11:35;;;;;;;35.10;32.00;;;;;;;11.11;74.55;97232.23;106575;1274;22554;-78
2022/04/22 08:14:03;;;;;;;31.40;28.50;;;;;;;11.14;74.20;97224.86;106531;1274;22601;-79
2022/04/22 08:16:31;;;;;;;29.40;26.50;;;;;;;11.17;74.10;97228.38;106423;1274;23414;-79
2022/04/22 08:18:59;;;;;;;29.90;27.20;;;;;;;11.19;73.82;97235.80;106462;1274;24233;-80
2022/04/22 08:21:33;;;;;;;31.70;28.90;;;;;;;11.20;73.80;97230.38;106495;1274;24224;-79
2022/04/22 08:24:03;;;;;;;31.20;28.30;;;;;;;11.29;73.58;97227.23;106424;1274;22705;-78
2022/04/22 08:26:32;;;;;;;32.10;29.30;;;;;;;11.42;73.68;97227.18;106635;1274;24080;-79
2022/04/22 08:29:00;;;;;;;31.80;28.90;;;;;;;11.53;73.13;97224.52;106509;1274;25419;-80
2022/04/22 08:31:28;;;;;;;35.50;32.10;;;;;;;11.54;72.56;97221.19;106516;1274;22697;-80
2022/04/22 08:33:57;;;;;;;32.20;29.30;;;;;;;11.54;72.64;97224.74;106457;1274;22642;-79
2022/04/22 08:36:29;;;;;;;29.40;26.60;;;;;;;11.58;72.71;97224.51;106255;1274;22659;-78
2022/04/22 08:38:58;;;;;;;27.30;24.60;;;;;;;11.60;72.08;97222.52;106418;1274;25395;-79
2022/04/22 08:41:31;;;;;;;28.90;26.20;;;;;;;11.63;71.95;97220.02;106520;1274;24774;-79
2022/04/22 08:43:59;;;;;;;29.10;26.50;;;;;;;11.68;71.80;97213.81;106416;1274;24399;-78
2022/04/22 08:52:03;;;;;;;27.30;24.50;;;;;;;11.96;71.78;97209.14;106479;1274;24306;-80
2022/04/22 08:54:35;;;;;;;26.00;23.50;;;;;;;12.07;71.29;97197.84;106477;1274;22749;-79
2022/04/22 08:57:03;;;;;;;27.70;25.20;;;;;;;12.17;71.08;97199.33;106504;1274;22711;-79
2022/04/22 08:59:31;;;;;;;47.20;43.20;;;;;;;12.21;70.48;97199.73;106456;1274;24270;-80
2022/04/22 09:01:59;;;;;;;29.00;26.20;;;;;;;12.17;70.29;97195.31;106473;1274;25359;-79
2022/04/22 09:04:27;;;;;;;31.60;28.70;;;;;;;12.14;70.24;97196.02;106418;1274;22548;-80
2022/04/22 09:06:56;;;;;;;33.50;29.90;;;;;;;12.12;70.05;97195.18;106306;1274;23638;-79
2022/04/22 09:09:24;;;;;;;31.40;28.70;;;;;;;12.15;70.40;97194.63;106409;1274;24587;-81
2022/04/22 09:12:11;;;;;;;33.70;30.60;;;;;;;12.22;70.35;97191.12;106530;1274;25418;-79
2022/04/22 09:14:46;;;;;;;34.00;30.90;;;;;;;12.28;70.18;97185.25;106562;1274;23293;-80
2022/04/22 09:17:15;;;;;;;31.10;28.30;;;;;;;12.36;70.42;97184.55;106692;1274;25408;-78
2022/04/22 09:19:44;;;;;;;31.40;28.70;;;;;;;12.45;69.67;97182.50;106841;1273;24255;-80
2022/04/22 09:22:18;;;;;;;31.40;28.60;;;;;;;12.48;69.44;97182.61;107205;1275;24409;-79
2022/04/22 09:24:46;;;;;;;34.40;31.20;;;;;;;12.53;69.93;97181.24;106519;1274;24401;-80
2022/04/22 09:27:14;;;;;;;30.70;28.10;;;;;;;12.58;69.34;97183.90;106440;1277;25522;-79
2022/04/22 09:29:53;;;;;;;32.70;29.30;;;;;;;12.59;69.09;97186.19;106390;1274;22582;-80
2022/04/22 09:32:26;;;;;;;38.50;35.10;;;;;;;12.65;68.63;97180.33;106453;1274;24403;-80
2022/04/22 09:35:06;;;;;;;37.20;34.00;;;;;;;12.66;68.45;97179.35;106339;1274;22721;-80
2022/04/22 09:43:37;;;;;;;37.90;34.20;;;;;;;12.69;68.61;97182.71;106517;1274;22582;-80
2022/04/22 09:46:24;;;;;;;39.50;36.00;;;;;;;12.73;68.31;97180.23;106282;1275;22543;-79
2022/04/22 09:48:56;;;;;;;40.00;36.30;;;;;;;12.66;68.10;97183.98;106500;1274;22626;-80
2022/04/22 09:51:30;;;;;;;44.70;40.50;;;;;;;12.54;67.48;97179.13;106286;1274;22548;-80
2022/04/22 09:54:09;;;;;;;;;;;;;;;12.34;68.04;97185.30;106475;1274;22527;-81
2022/04/22 09:56:38;;;;;;;49.60;45.10;;;;;;;12.23;67.79;97188.05;106553;1274;25780;-80
2022/04/22 09:59:23;;;;;;;49.50;44.50;;;;;;;12.05;67.72;97193.30;106127;1274;22572;-81
2022/04/22 10:01:51;;;;;;;46.20;41.70;;;;;;;11.99;68.16;97198.06;106547;1274;24224;-81
2022/04/22 10:04:38;;;;;;;46.70;42.10;;;;;;;12.01;68.20;97205.17;106485;1274;22642;-81
2022/04/22 10:07:08;;;;;;;51.10;46.30;;;;;;;12.01;68.20;97205.34;106417;1274;25438;-78
2022/04/22 10:09:36;;;;;;;45.40;41.00;;;;;;;12.01;68.47;97214.45;106524;1274;22535;-79
2022/04/22 10:12:09;;;;;;;45.00;40.60;;;;;;;12.02;68.24;97221.02;106564;1274;22683;-79
2022/04/22 10:14:38;;;;;;;44.40;40.10;;;;;;;11.91;67.89;97226.48;106393;1274;22550;-79
2022/04/22 10:17:06;;;;;;;44.50;40.10;;;;;;;11.79;68.41;97230.80;106429;1274;164578;-78
2022/04/22 10:19:36;;;;;;;41.30;37.50;;;;;;;11.72;68.19;97233.83;106513;1274;24248;-80
2022/04/22 10:22:07;;;;;;;43.70;39.40;;;;;;;11.58;68.00;97236.09;106171;1274;22622;-79
2022/04/22 10:24:35;;;;;;;39.70;36.00;;;;;;;11.39;68.13;97241.46;106511;1274;22696;-79
2022/04/22 10:27:07;;;;;;;40.80;37.10;;;;;;;11.25;68.25;97243.15;106489;1272;22656;-79
2022/04/22 10:29:36;;;;;;;40.00;36.30;;;;;;;11.03;68.29;97246.41;106560;1274;25004;-80
2022/04/22 10:32:26;;;;;;;43.20;39.10;;;;;;;10.73;68.71;97243.46;106761;1273;24266;-80
2022/04/22 10:34:59;;;;;;;40.80;37.10;;;;;;;10.61;69.18;97246.38;107098;1273;22557;-77
2022/04/22 10:37:28;;;;;;;41.80;38.00;;;;;;;10.53;69.14;97242.67;106204;1274;23648;-77
2022/04/22 10:39:57;;;;;;;40.10;36.50;;;;;;;10.46;69.47;97241.94;106139;1274;22693;-80
2022/04/22 10:42:37;;;;;;;38.20;34.80;;;;;;;10.43;69.43;97238.31;106203;1274;24893;-79
2022/04/22 10:48:19;;;;;;;36.70;33.30;;;;;;;10.24;69.36;97239.16;106175;1274;22576;-80
2022/04/22 10:51:01;;;;;;;34.70;31.60;;;;;;;10.13;69.53;97240.04;106252;1274;23977;-80
2022/04/22 10:53:34;;;;;;;37.10;31.10;;;;;;;10.03;69.89;97239.36;106236;1274;22682;-81
2022/04/22 10:56:43;;;;;;;34.60;31.10;;;;;;;9.87;70.03;97237.45;107435;1274;24254;-81
2022/04/22 10:59:18;;;;;;;35.30;31.70;;;;;;;9.72;70.15;97235.66;107483;1281;22546;-80
2022/04/22 11:01:47;;;;;;;38.60;34.80;;;;;;;9.65;70.64;97230.45;107572;1281;22569;-81
2022/04/22 11:04:24;;;;;;;37.50;33.90;;;;;;;9.65;70.67;97224.16;106045;1281;22679;-81
2022/04/22 11:06:52;;;;;;;37.80;33.90;;;;;;;9.69;70.77;97221.14;106095;1281;23068;-80
2022/04/22 11:09:28;;;;;;;34.30;30.80;;;;;;;9.82;70.93;97218.55;106079;1281;22573;-77
2022/04/22 11:11:58;;;;;;;32.80;29.50;;;;;;;10.01;70.79;97212.77;106084;1281;22623;-78
2022/04/22 11:14:28;;;;;;;32.40;29.40;;;;;;;10.14;70.98;97205.83;106110;1281;25481;-78
2022/04/22 11:17:31;;;;;;;31.20;28.00;;;;;;;10.26;70.99;97208.85;106033;1281;26644;-78
2022/04/22 11:19:59;;;;;;;28.70;26.00;;;;;;;10.42;71.22;97203.16;106144;1281;24240;-78
2022/04/22 11:22:56;;;;;;;29.30;26.20;;;;;;;10.52;70.58;97200.40;106040;1281;22637;-78
2022/04/22 11:25:29;;;;;;;34.00;30.70;;;;;;;10.60;70.84;97197.78;105501;1281;22553;-81
2022/04/22 11:27:58;;;;;;;29.90;27.10;;;;;;;10.70;70.82;97194.35;106083;1281;22638;-81
2022/04/22 11:30:28;;;;;;;30.90;27.90;;;;;;;10.77;70.78;97190.75;106426;1277;26742;-80
2022/04/22 11:33:16;;;;;;;32.70;29.60;;;;;;;10.87;70.75;97191.09;106768;1274;23115;-80
2022/04/22 11:35:44;;;;;;;34.30;31.20;;;;;;;11.03;70.95;97185.40;106822;1274;22546;-78
2022/04/22 11:38:13;;;;;;;33.20;29.80;;;;;;;11.20;70.89;97181.04;106190;1274;25354;-79
2022/04/22 11:40:43;;;;;;;30.60;28.00;;;;;;;11.36;70.33;97183.08;106555;1274;25238;-81
2022/04/22 11:43:28;;;;;;;31.00;28.00;;;;;;;11.55;70.63;97185.70;106754;1273;22570;-80
2022/04/22 11:45:58;;;;;;;29.90;27.30;;;;;;;11.69;69.96;97179.88;106189;1274;23012;-80
2022/04/22 11:48:26;;;;;;;31.50;28.60;;;;;;;11.78;69.75;97174.60;106683;1274;22553;-80
2022/04/22 11:50:58;;;;;;;30.30;27.50;;;;;;;11.86;69.94;97176.39;106603;1274;22570;-80
2022/04/22 11:53:32;;;;;;;28.40;25.90;;;;;;;11.96;69.69;97169.78;106855;1274;22719;-80
2022/04/22 11:56:02;;;;;;;26.00;23.70;;;;;;;11.98;69.30;97164.78;106970;1274;22524;-78
2022/04/22 11:58:32;;;;;;;25.20;22.80;;;;;;;12.07;69.39;97167.69;106628;1274;22668;-78
2022/04/22 12:06:40;;;;;;;24.80;22.40;;;;;;;12.48;69.29;97165.48;106535;1274;24434;-78
2022/04/22 12:09:08;;;;;;;23.70;21.60;;;;;;;12.50;68.84;97161.84;106697;1274;22713;-83
2022/04/22 12:11:42;;;;;;;24.70;22.60;;;;;;;12.44;68.14;97156.69;106820;1274;22547;-79
2022/04/22 12:14:11;;;;;;;24.10;21.50;;;;;;;12.41;68.19;97155.03;106664;1277;23382;-78
2022/04/22 12:16:41;;;;;;;22.60;20.60;;;;;;;12.36;67.29;97150.96;106132;1274;23538;-78
2022/04/22 12:19:11;;;;;;;25.60;23.40;;;;;;;12.31;67.99;97148.84;106131;1274;24084;-79
2022/04/22 12:21:40;;;;;;;26.40;24.20;;;;;;;12.26;66.71;97146.14;106083;1274;22784;-77
2022/04/22 12:24:07;;;;;;;26.30;23.80;;;;;;;12.18;67.40;97148.30;106702;1274;24221;-79
2022/04/22 12:26:47;;;;;;;21.80;19.60;;;;;;;12.22;67.40;97147.52;106558;1274;22555;-79